sensor_id;sensor_type;location;lat;lon;timestamp;pressure;altitude;pressure_sealevel;temperature;humidity
52839;BME280;39219;53.678;9.856;2022-08-07T00:01:09;102479.47;;;10.52;100.00
52839;BME280;39219;53.678;9.856;2022-08-07T00:03:35;102488.34;;;10.49;100.00
52839;BME280;39219;53.678;9.856;2022-08-07T00:06:03;102481.19;;;10.39;100.00
52839;BME280;39219;53.678;9.856;2022-08-07T00:08:30;102482.91;;;10.34;100.00
52839;BME280;39219;53.678;9.856;2022-08-07T00:10:56;102480.19;;;10.23;100.00
52839;BME280;39219;53.678;9.856;2022-08-07T00:13:23;102480.16;;;10.18;100.00
52839;BME280;39219;53.678;9.856;2022-08-07T00:15:51;102479.19;;;10.05;100.00
52839;BME280;39219;53.678;9.856;2022-08-07T00:18:20;102475.59;;;9.99;100.00
52839;BME280;39219;53.678;9.856;2022-08-07T00:20:47;102474.69;;;9.90;100.00
52839;BME280;39219;53.678;9.856;2022-08-07T00:23:14;102474.78;;;10.06;100.00
52839;BME280;39219;53.678;9.856;2022-08-07T00:25:41;102475.81;;;10.30;100.00
52839;BME280;39219;53.678;9.856;2022-08-07T00:28:07;102470.50;;;10.34;100.00
52839;BME280;39219;53.678;9.856;2022-08-07T00:30:34;102472.25;;;10.29;100.00
52839;BME280;39219;53.678;9.856;2022-08-07T00:33:01;102466.97;;;10.35;100.00
52839;BME280;39219;53.678;9.856;2022-08-07T00:35:28;102467.00;;;10.37;100.00
52839;BME280;39219;53.678;9.856;2022-08-07T00:37:55;102461.66;;;10.34;100.00
52839;BME280;39219;53.678;9.856;2022-08-07T00:40:21;102469.59;;;10.31;100.00
52839;BME280;39219;53.678;9.856;2022-08-07T00:42:48;102466.03;;;10.24;100.00
52839;BME280;39219;53.678;9.856;2022-08-07T00:45:14;102458.09;;;10.29;100.00
52839;BME280;39219;53.678;9.856;2022-08-07T00:47:41;102458.97;;;10.23;100.00
52839;BME280;39219;53.678;9.856;2022-08-07T00:50:09;102461.56;;;10.14;100.00
52839;BME280;39219;53.678;9.856;2022-08-07T00:52:35;102467.63;;;9.94;100.00
52839;BME280;39219;53.678;9.856;2022-08-07T00:55:02;102464.06;;;9.87;100.00
52839;BME280;39219;53.678;9.856;2022-08-07T00:57:29;102466.66;;;9.81;100.00
52839;BME280;39219;53.678;9.856;2022-08-07T00:59:55;102462.97;;;9.62;100.00
52839;BME280;39219;53.678;9.856;2022-08-07T01:02:22;102463.06;;;9.73;100.00
52839;BME280;39219;53.678;9.856;2022-08-07T01:04:49;102455.16;;;9.81;100.00
52839;BME280;39219;53.678;9.856;2022-08-07T01:07:18;102456.94;;;9.83;100.00
52839;BME280;39219;53.678;9.856;2022-08-07T01:09:45;102456.09;;;9.89;100.00
52839;BME280;39219;53.678;9.856;2022-08-07T01:12:12;102463.16;;;9.85;100.00
52839;BME280;39219;53.678;9.856;2022-08-07T01:14:40;102462.97;;;9.65;100.00
52839;BME280;39219;53.678;9.856;2022-08-07T01:17:07;102467.25;;;9.44;100.00
52839;BME280;39219;53.678;9.856;2022-08-07T01:19:34;102457.44;;;9.34;100.00
52839;BME280;39219;53.678;9.856;2022-08-07T01:22:02;102465.50;;;9.46;100.00
52839;BME280;39219;53.678;9.856;2022-08-07T01:24:29;102460.97;;;9.34;100.00
52839;BME280;39219;53.678;9.856;2022-08-07T01:26:58;102453.91;;;9.37;100.00
52839;BME280;39219;53.678;9.856;2022-08-07T01:29:26;102460.88;;;9.22;100.00
52839;BME280;39219;53.678;9.856;2022-08-07T01:31:53;102457.22;;;9.11;100.00
52839;BME280;39219;53.678;9.856;2022-08-07T01:34:20;102459.84;;;9.08;100.00
52839;BME280;39219;53.678;9.856;2022-08-07T01:36:47;102457.28;;;9.17;100.00
52839;BME280;39219;53.678;9.856;2022-08-07T01:39:16;102449.53;;;9.40;100.00
52839;BME280;39219;53.678;9.856;2022-08-07T01:41:43;102456.50;;;9.27;100.00
52839;BME280;39219;53.678;9.856;2022-08-07T01:44:10;102460.00;;;9.23;100.00
52839;BME280;39219;53.678;9.856;2022-08-07T01:46:38;102456.47;;;9.26;100.00
52839;BME280;39219;53.678;9.856;2022-08-07T01:49:05;102449.28;;;9.12;100.00
52839;BME280;39219;53.678;9.856;2022-08-07T01:51:32;102460.78;;;9.14;100.00
52839;BME280;39219;53.678;9.856;2022-08-07T01:54:02;102455.59;;;9.25;100.00
52839;BME280;39219;53.678;9.856;2022-08-07T01:56:33;102459.97;;;9.20;100.00
52839;BME280;39219;53.678;9.856;2022-08-07T01:59:05;102454.66;;;9.20;100.00
52839;BME280;39219;53.678;9.856;2022-08-07T02:01:42;102450.31;;;9.25;100.00
52839;BME280;39219;53.678;9.856;2022-08-07T02:04:12;102450.31;;;9.27;100.00
52839;BME280;39219;53.678;9.856;2022-08-07T02:06:42;102450.28;;;9.22;100.00
52839;BME280;39219;53.678;9.856;2022-08-07T02:09:11;102453.81;;;9.26;100.00
52839;BME280;39219;53.678;9.856;2022-08-07T02:11:43;102446.78;;;9.29;100.00
52839;BME280;39219;53.678;9.856;2022-08-07T02:14:11;102447.50;;;9.10;100.00
52839;BME280;39219;53.678;9.856;2022-08-07T02:16:40;102444.72;;;8.97;100.00
52839;BME280;39219;53.678;9.856;2022-08-07T02:19:10;102446.31;;;8.83;100.00
52839;BME280;39219;53.678;9.856;2022-08-07T02:21:39;102442.75;;;8.79;100.00
52839;BME280;39219;53.678;9.856;2022-08-07T02:24:07;102437.38;;;8.71;100.00
52839;BME280;39219;53.678;9.856;2022-08-07T02:26:35;102442.75;;;8.79;100.00
52839;BME280;39219;53.678;9.856;2022-08-07T02:29:06;102432.22;;;8.84;100.00
52839;BME280;39219;53.678;9.856;2022-08-07T02:31:34;102438.56;;;9.03;100.00
52839;BME280;39219;53.678;9.856;2022-08-07T02:34:03;102434.22;;;9.07;100.00
52839;BME280;39219;53.678;9.856;2022-08-07T02:36:30;102432.41;;;9.02;100.00
52839;BME280;39219;53.678;9.856;2022-08-07T02:39:00;102428.78;;;8.96;100.00
52839;BME280;39219;53.678;9.856;2022-08-07T02:41:28;102424.38;;;8.98;100.00
52839;BME280;39219;53.678;9.856;2022-08-07T02:43:57;102436.69;;;8.91;100.00
52839;BME280;39219;53.678;9.856;2022-08-07T02:46:27;102426.06;;;8.86;100.00
52839;BME280;39219;53.678;9.856;2022-08-07T02:48:55;102419.97;;;8.94;100.00
52839;BME280;39219;53.678;9.856;2022-08-07T02:51:23;102424.34;;;8.95;100.00
52839;BME280;39219;53.678;9.856;2022-08-07T02:53:51;102427.84;;;8.87;100.00
52839;BME280;39219;53.678;9.856;2022-08-07T02:56:20;102420.53;;;8.65;100.00
52839;BME280;39219;53.678;9.856;2022-08-07T02:58:49;102422.19;;;8.55;100.00
52839;BME280;39219;53.678;9.856;2022-08-07T03:01:17;102423.81;;;8.47;100.00
52839;BME280;39219;53.678;9.856;2022-08-07T03:03:48;102423.91;;;8.50;100.00
52839;BME280;39219;53.678;9.856;2022-08-07T03:06:17;102430.22;;;8.64;100.00
52839;BME280;39219;53.678;9.856;2022-08-07T03:08:45;102420.41;;;8.55;100.00
52839;BME280;39219;53.678;9.856;2022-08-07T03:11:12;102419.28;;;8.36;100.00
52839;BME280;39219;53.678;9.856;2022-08-07T03:13:40;102420.16;;;8.37;100.00
52839;BME280;39219;53.678;9.856;2022-08-07T03:16:07;102424.66;;;8.42;100.00
52839;BME280;39219;53.678;9.856;2022-08-07T03:18:33;102413.06;;;8.34;100.00
52839;BME280;39219;53.678;9.856;2022-08-07T03:21:02;102410.44;;;8.34;100.00
52839;BME280;39219;53.678;9.856;2022-08-07T03:23:30;102416.75;;;8.45;100.00
52839;BME280;39219;53.678;9.856;2022-08-07T03:25:59;102414.97;;;8.44;100.00
52839;BME280;39219;53.678;9.856;2022-08-07T03:28:28;102405.28;;;8.47;100.00
52839;BME280;39219;53.678;9.856;2022-08-07T03:30:55;102414.00;;;8.38;100.00
52839;BME280;39219;53.678;9.856;2022-08-07T03:33:37;102404.09;;;8.21;100.00
52839;BME280;39219;53.678;9.856;2022-08-07T03:36:07;102409.59;;;8.40;100.00
52839;BME280;39219;53.678;9.856;2022-08-07T03:38:35;102411.56;;;8.53;100.00
52839;BME280;39219;53.678;9.856;2022-08-07T03:41:02;102409.88;;;8.58;100.00
52839;BME280;39219;53.678;9.856;2022-08-07T03:43:29;102416.84;;;8.52;100.00
52839;BME280;39219;53.678;9.856;2022-08-07T03:45:57;102420.53;;;8.65;100.00
52839;BME280;39219;53.678;9.856;2022-08-07T03:48:25;102411.78;;;8.72;100.00
52839;BME280;39219;53.678;9.856;2022-08-07T03:50:54;102417.00;;;8.66;100.00
52839;BME280;39219;53.678;9.856;2022-08-07T03:53:22;102413.47;;;8.65;100.00
52839;BME280;39219;53.678;9.856;2022-08-07T03:55:50;102417.03;;;8.69;100.00
52839;BME280;39219;53.678;9.856;2022-08-07T03:58:17;102418.81;;;8.70;100.00
52839;BME280;39219;53.678;9.856;2022-08-07T04:00:45;102425.06;;;8.75;100.00
52839;BME280;39219;53.678;9.856;2022-08-07T04:03:13;102418.81;;;8.70;100.00
52839;BME280;39219;53.678;9.856;2022-08-07T04:05:40;102424.88;;;8.58;100.00
52839;BME280;39219;53.678;9.856;2022-08-07T04:08:09;102425.88;;;8.68;100.00
52839;BME280;39219;53.678;9.856;2022-08-07T04:10:37;102425.91;;;8.72;100.00
52839;BME280;39219;53.678;9.856;2022-08-07T04:13:04;102427.75;;;8.80;100.00
52839;BME280;39219;53.678;9.856;2022-08-07T04:15:32;102433.84;;;8.72;100.00
52839;BME280;39219;53.678;9.856;2022-08-07T04:17:58;102433.81;;;8.68;100.00
52839;BME280;39219;53.678;9.856;2022-08-07T04:20:25;102435.59;;;8.70;100.00
52839;BME280;39219;53.678;9.856;2022-08-07T04:22:53;102435.59;;;8.70;100.00
52839;BME280;39219;53.678;9.856;2022-08-07T04:25:21;102446.34;;;8.84;100.00
52839;BME280;39219;53.678;9.856;2022-08-07T04:27:49;102447.41;;;9.00;100.00
52839;BME280;39219;53.678;9.856;2022-08-07T04:30:16;102441.38;;;9.17;100.00
52839;BME280;39219;53.678;9.856;2022-08-07T04:32:44;102442.28;;;9.19;100.00
52839;BME280;39219;53.678;9.856;2022-08-07T04:35:11;102442.22;;;9.13;100.00
52839;BME280;39219;53.678;9.856;2022-08-07T04:37:38;102441.31;;;9.11;100.00
52839;BME280;39219;53.678;9.856;2022-08-07T04:40:06;102444.06;;;9.20;100.00
52839;BME280;39219;53.678;9.856;2022-08-07T04:42:32;102445.88;;;9.24;100.00
52839;BME280;39219;53.678;9.856;2022-08-07T04:45:02;102446.78;;;9.28;100.00
52839;BME280;39219;53.678;9.856;2022-08-07T04:47:34;102451.31;;;9.41;100.00
52839;BME280;39219;53.678;9.856;2022-08-07T04:50:07;102445.31;;;9.66;100.00
52839;BME280;39219;53.678;9.856;2022-08-07T04:52:38;102444.56;;;9.84;100.00
52839;BME280;39219;53.678;9.856;2022-08-07T04:55:12;102449.03;;;9.96;100.00
52839;BME280;39219;53.678;9.856;2022-08-07T04:57:46;102450.84;;;10.03;100.00
52839;BME280;39219;53.678;9.856;2022-08-07T05:00:18;102453.53;;;10.04;100.00
52839;BME280;39219;53.678;9.856;2022-08-07T05:02:53;102460.72;;;10.26;100.00
52839;BME280;39219;53.678;9.856;2022-08-07T05:05:25;102453.69;;;10.34;100.00
52839;BME280;39219;53.678;9.856;2022-08-07T05:07:59;102458.19;;;10.46;100.00
52839;BME280;39219;53.678;9.856;2022-08-07T05:10:29;102451.19;;;10.59;100.00
52839;BME280;39219;53.678;9.856;2022-08-07T05:13:02;102447.66;;;10.72;100.00
52839;BME280;39219;53.678;9.856;2022-08-07T05:15:35;102453.91;;;10.90;100.00
52839;BME280;39219;53.678;9.856;2022-08-07T05:18:05;102451.28;;;11.07;100.00
52839;BME280;39219;53.678;9.856;2022-08-07T05:20:37;102457.53;;;11.21;100.00
52839;BME280;39219;53.678;9.856;2022-08-07T05:23:08;102461.97;;;11.36;100.00
52839;BME280;39219;53.678;9.856;2022-08-07T05:25:37;102453.97;;;11.52;100.00
52839;BME280;39219;53.678;9.856;2022-08-07T05:28:07;102460.19;;;11.71;100.00
52839;BME280;39219;53.678;9.856;2022-08-07T05:30:36;102457.47;;;11.94;100.00
52839;BME280;39219;53.678;9.856;2022-08-07T05:33:04;102463.66;;;12.21;100.00
52839;BME280;39219;53.678;9.856;2022-08-07T05:35:32;102464.44;;;12.53;100.00
52839;BME280;39219;53.678;9.856;2022-08-07T05:38:01;102460.03;;;13.83;100.00
52839;BME280;39219;53.678;9.856;2022-08-07T05:40:28;102462.56;;;16.33;96.97
52839;BME280;39219;53.678;9.856;2022-08-07T05:42:55;102469.75;;;18.82;85.61
52839;BME280;39219;53.678;9.856;2022-08-07T05:45:22;102472.50;;;21.32;78.64
52839;BME280;39219;53.678;9.856;2022-08-07T05:47:52;102471.56;;;23.69;69.64
52839;BME280;39219;53.678;9.856;2022-08-07T05:50:20;102480.75;;;25.32;61.00
52839;BME280;39219;53.678;9.856;2022-08-07T05:52:46;102485.09;;;25.20;48.32
52839;BME280;39219;53.678;9.856;2022-08-07T05:55:13;102489.00;;;24.50;47.51
52839;BME280;39219;53.678;9.856;2022-08-07T05:57:40;102496.41;;;25.44;45.20
52839;BME280;39219;53.678;9.856;2022-08-07T06:00:09;102490.63;;;26.10;43.94
52839;BME280;39219;53.678;9.856;2022-08-07T06:02:37;102489.75;;;26.09;42.43
52839;BME280;39219;53.678;9.856;2022-08-07T06:05:09;102486.03;;;25.81;43.73
52839;BME280;39219;53.678;9.856;2022-08-07T06:07:38;102474.88;;;25.55;44.72
52839;BME280;39219;53.678;9.856;2022-08-07T06:10:05;102477.41;;;24.96;46.21
52839;BME280;39219;53.678;9.856;2022-08-07T06:12:34;102471.25;;;23.75;50.47
52839;BME280;39219;53.678;9.856;2022-08-07T06:15:01;102470.13;;;23.79;50.30
52839;BME280;39219;53.678;9.856;2022-08-07T06:17:29;102469.91;;;24.67;48.98
52839;BME280;39219;53.678;9.856;2022-08-07T06:19:58;102478.09;;;24.00;49.10
52839;BME280;39219;53.678;9.856;2022-08-07T06:22:27;102479.06;;;24.33;50.21
52839;BME280;39219;53.678;9.856;2022-08-07T06:24:56;102479.91;;;24.17;50.16
52839;BME280;39219;53.678;9.856;2022-08-07T06:27:23;102482.06;;;24.44;49.47
52839;BME280;39219;53.678;9.856;2022-08-07T06:29:51;102476.09;;;23.69;49.84
52839;BME280;39219;53.678;9.856;2022-08-07T06:32:18;102481.28;;;23.19;51.63
52839;BME280;39219;53.678;9.856;2022-08-07T06:34:44;102474.66;;;22.69;53.11
52839;BME280;39219;53.678;9.856;2022-08-07T06:37:11;102477.34;;;23.07;52.01
52839;BME280;39219;53.678;9.856;2022-08-07T06:39:39;102482.78;;;22.50;55.04
52839;BME280;39219;53.678;9.856;2022-08-07T06:42:07;102480.00;;;22.51;53.73
52839;BME280;39219;53.678;9.856;2022-08-07T06:44:36;102479.16;;;21.88;55.73
52839;BME280;39219;53.678;9.856;2022-08-07T06:47:03;102474.47;;;22.13;54.77
52839;BME280;39219;53.678;9.856;2022-08-07T06:49:30;102477.16;;;22.33;54.77
52839;BME280;39219;53.678;9.856;2022-08-07T06:51:58;102476.09;;;22.95;52.66
52839;BME280;39219;53.678;9.856;2022-08-07T06:54:25;102470.13;;;22.88;52.33
52839;BME280;39219;53.678;9.856;2022-08-07T06:56:54;102480.97;;;22.29;53.67
52839;BME280;39219;53.678;9.856;2022-08-07T06:59:25;102468.00;;;21.96;54.63
52839;BME280;39219;53.678;9.856;2022-08-07T07:01:53;102475.56;;;22.09;54.87
52839;BME280;39219;53.678;9.856;2022-08-07T07:04:20;102475.44;;;21.91;54.59
52839;BME280;39219;53.678;9.856;2022-08-07T07:06:47;102480.47;;;22.40;54.74
52839;BME280;39219;53.678;9.856;2022-08-07T07:09:21;102478.25;;;22.29;54.38
52839;BME280;39219;53.678;9.856;2022-08-07T07:11:57;102483.00;;;22.03;55.08
52839;BME280;39219;53.678;9.856;2022-08-07T07:14:27;102469.91;;;22.74;53.29
52839;BME280;39219;53.678;9.856;2022-08-07T07:16:58;102478.38;;;22.85;53.12
52839;BME280;39219;53.678;9.856;2022-08-07T07:19:31;102488.72;;;23.33;50.32
52839;BME280;39219;53.678;9.856;2022-08-07T07:21:59;102477.59;;;23.92;47.88
52839;BME280;39219;53.678;9.856;2022-08-07T07:24:27;102480.78;;;24.18;47.42
52839;BME280;39219;53.678;9.856;2022-08-07T07:26:58;102488.00;;;24.35;46.96
52839;BME280;39219;53.678;9.856;2022-08-07T07:29:29;102482.94;;;23.93;48.82
52839;BME280;39219;53.678;9.856;2022-08-07T07:31:58;102478.63;;;23.36;49.32
52839;BME280;39219;53.678;9.856;2022-08-07T07:34:29;102481.97;;;22.86;49.33
52839;BME280;39219;53.678;9.856;2022-08-07T07:36:58;102478.47;;;23.20;51.65
52839;BME280;39219;53.678;9.856;2022-08-07T07:39:26;102475.66;;;23.41;49.20
52839;BME280;39219;53.678;9.856;2022-08-07T07:41:56;102473.00;;;23.22;50.66
52839;BME280;39219;53.678;9.856;2022-08-07T07:44:27;102477.66;;;23.55;47.80
52839;BME280;39219;53.678;9.856;2022-08-07T07:46:56;102471.34;;;23.90;48.53
52839;BME280;39219;53.678;9.856;2022-08-07T07:49:26;102492.84;;;24.95;43.29
52839;BME280;39219;53.678;9.856;2022-08-07T07:51:56;102481.50;;;26.69;40.51
52839;BME280;39219;53.678;9.856;2022-08-07T07:54:23;102480.25;;;25.25;42.13
52839;BME280;39219;53.678;9.856;2022-08-07T07:56:51;102487.84;;;25.04;43.87
52839;BME280;39219;53.678;9.856;2022-08-07T07:59:20;102486.84;;;26.70;40.63
52839;BME280;39219;53.678;9.856;2022-08-07T08:01:50;102488.91;;;27.76;38.38
52839;BME280;39219;53.678;9.856;2022-08-07T08:04:18;102492.41;;;29.31;34.63
52839;BME280;39219;53.678;9.856;2022-08-07T08:06:46;102486.03;;;29.79;33.65
52839;BME280;39219;53.678;9.856;2022-08-07T08:09:15;102497.69;;;30.05;31.12
52839;BME280;39219;53.678;9.856;2022-08-07T08:11:44;102484.84;;;30.63;31.70
52839;BME280;39219;53.678;9.856;2022-08-07T08:14:11;102491.63;;;31.02;30.58
52839;BME280;39219;53.678;9.856;2022-08-07T08:16:39;102488.84;;;31.79;30.61
52839;BME280;39219;53.678;9.856;2022-08-07T08:19:12;102489.13;;;31.76;30.75
52839;BME280;39219;53.678;9.856;2022-08-07T08:21:41;102481.19;;;30.96;30.72
52839;BME280;39219;53.678;9.856;2022-08-07T08:24:30;102479.50;;;30.04;32.85
52839;BME280;39219;53.678;9.856;2022-08-07T08:27:15;102475.91;;;30.38;31.92
52839;BME280;39219;53.678;9.856;2022-08-07T08:29:46;102478.09;;;30.55;31.15
52839;BME280;39219;53.678;9.856;2022-08-07T08:32:17;102475.25;;;30.00;31.21
52839;BME280;39219;53.678;9.856;2022-08-07T08:34:47;102470.38;;;29.57;31.16
52839;BME280;39219;53.678;9.856;2022-08-07T08:37:16;102458.22;;;27.60;35.96
52839;BME280;39219;53.678;9.856;2022-08-07T08:39:45;102462.06;;;27.30;36.46
52839;BME280;39219;53.678;9.856;2022-08-07T08:42:20;102464.31;;;26.39;37.20
52839;BME280;39219;53.678;9.856;2022-08-07T08:44:56;102454.22;;;27.38;37.20
52839;BME280;39219;53.678;9.856;2022-08-07T08:47:25;102460.56;;;27.92;33.50
52839;BME280;39219;53.678;9.856;2022-08-07T08:50:02;102453.94;;;27.15;34.76
52839;BME280;39219;53.678;9.856;2022-08-07T08:52:33;102451.28;;;27.69;35.41
52839;BME280;39219;53.678;9.856;2022-08-07T08:55:08;102442.91;;;27.44;35.12
52839;BME280;39219;53.678;9.856;2022-08-07T08:57:42;102440.56;;;25.98;39.16
52839;BME280;39219;53.678;9.856;2022-08-07T09:00:10;102437.03;;;25.67;40.18
52839;BME280;39219;53.678;9.856;2022-08-07T09:02:43;102436.47;;;24.51;43.57
52839;BME280;39219;53.678;9.856;2022-08-07T09:05:22;102435.25;;;24.73;43.05
52839;BME280;39219;53.678;9.856;2022-08-07T09:07:56;102438.75;;;25.53;40.45
52839;BME280;39219;53.678;9.856;2022-08-07T09:10:28;102433.38;;;25.05;40.75
52839;BME280;39219;53.678;9.856;2022-08-07T09:13:06;102433.31;;;24.91;41.38
52839;BME280;39219;53.678;9.856;2022-08-07T09:15:42;102422.72;;;24.20;42.07
52839;BME280;39219;53.678;9.856;2022-08-07T09:18:20;102438.22;;;25.16;41.80
52839;BME280;39219;53.678;9.856;2022-08-07T09:20:56;102438.41;;;25.88;41.30
52839;BME280;39219;53.678;9.856;2022-08-07T09:23:36;102423.22;;;24.45;43.41
52839;BME280;39219;53.678;9.856;2022-08-07T09:26:15;102433.63;;;24.68;42.33
52839;BME280;39219;53.678;9.856;2022-08-07T09:28:46;102437.03;;;25.67;39.17
52839;BME280;39219;53.678;9.856;2022-08-07T09:31:23;102439.88;;;26.67;38.01
52839;BME280;39219;53.678;9.856;2022-08-07T09:34:07;102430.91;;;27.47;37.87
52839;BME280;39219;53.678;9.856;2022-08-07T09:36:40;102430.41;;;25.85;37.85
52839;BME280;39219;53.678;9.856;2022-08-07T09:39:22;102441.66;;;26.24;36.39
52839;BME280;39219;53.678;9.856;2022-08-07T09:42:01;102443.72;;;26.77;36.91
52839;BME280;39219;53.678;9.856;2022-08-07T09:44:40;102432.84;;;26.77;35.70
52839;BME280;39219;53.678;9.856;2022-08-07T09:47:18;102426.13;;;27.23;35.86
52839;BME280;39219;53.678;9.856;2022-08-07T09:49:56;102425.09;;;27.39;36.33
52839;BME280;39219;53.678;9.856;2022-08-07T09:52:32;102426.44;;;27.05;37.23
52839;BME280;39219;53.678;9.856;2022-08-07T09:55:04;102429.81;;;26.82;35.14
52839;BME280;39219;53.678;9.856;2022-08-07T10:00:26;102410.91;;;27.33;37.89
52839;BME280;39219;53.678;9.856;2022-08-07T10:03:15;102413.94;;;26.88;34.62
52839;BME280;39219;53.678;9.856;2022-08-07T10:06:12;102406.63;;;26.89;38.91
52839;BME280;39219;53.678;9.856;2022-08-07T10:09:20;102400.31;;;25.88;39.72
52839;BME280;39219;53.678;9.856;2022-08-07T10:12:04;102409.34;;;25.89;38.33
52839;BME280;39219;53.678;9.856;2022-08-07T10:15:00;102404.94;;;26.59;38.62
52839;BME280;39219;53.678;9.856;2022-08-07T10:17:55;102405.44;;;27.20;33.98
52839;BME280;39219;53.678;9.856;2022-08-07T10:20:33;102399.31;;;27.57;35.77
52839;BME280;39219;53.678;9.856;2022-08-07T10:23:17;102401.81;;;27.99;37.00
52839;BME280;39219;53.678;9.856;2022-08-07T10:25:56;102395.72;;;27.70;36.70
52839;BME280;39219;53.678;9.856;2022-08-07T10:28:54;102387.03;;;26.55;37.47
52839;BME280;39219;53.678;9.856;2022-08-07T10:31:36;102388.38;;;26.06;37.43
52839;BME280;39219;53.678;9.856;2022-08-07T10:34:19;102388.59;;;26.59;37.73
52839;BME280;39219;53.678;9.856;2022-08-07T10:37:00;102377.59;;;27.15;38.08
52839;BME280;39219;53.678;9.856;2022-08-07T10:39:42;102377.78;;;26.72;37.06
52839;BME280;39219;53.678;9.856;2022-08-07T10:42:27;102384.84;;;26.47;36.42
52839;BME280;39219;53.678;9.856;2022-08-07T10:45:02;102382.34;;;25.41;37.63
52839;BME280;39219;53.678;9.856;2022-08-07T10:47:40;102380.19;;;25.32;39.21
52839;BME280;39219;53.678;9.856;2022-08-07T10:50:12;102375.72;;;25.90;36.66
52839;BME280;39219;53.678;9.856;2022-08-07T10:52:52;102375.63;;;26.35;37.89
52839;BME280;39219;53.678;9.856;2022-08-07T10:55:23;102365.97;;;25.57;37.53
52839;BME280;39219;53.678;9.856;2022-08-07T10:58:01;102366.13;;;24.30;39.66
52839;BME280;39219;53.678;9.856;2022-08-07T11:00:32;102359.13;;;23.92;40.24
52839;BME280;39219;53.678;9.856;2022-08-07T11:03:05;102372.50;;;24.29;40.01
52839;BME280;39219;53.678;9.856;2022-08-07T11:05:41;102356.53;;;23.73;41.07
52839;BME280;39219;53.678;9.856;2022-08-07T11:08:15;102361.28;;;24.19;41.35
52839;BME280;39219;53.678;9.856;2022-08-07T11:10:46;102362.66;;;24.10;40.65
52839;BME280;39219;53.678;9.856;2022-08-07T11:13:21;102361.53;;;24.15;39.64
52839;BME280;39219;53.678;9.856;2022-08-07T11:15:53;102358.38;;;23.89;40.13
52839;BME280;39219;53.678;9.856;2022-08-07T11:18:28;102353.75;;;23.91;40.11
52839;BME280;39219;53.678;9.856;2022-08-07T11:21:05;102354.66;;;23.91;39.92
52839;BME280;39219;53.678;9.856;2022-08-07T11:23:38;102346.81;;;24.03;41.08
52839;BME280;39219;53.678;9.856;2022-08-07T11:26:14;102347.53;;;24.54;42.81
52839;BME280;39219;53.678;9.856;2022-08-07T11:28:48;102346.88;;;25.28;41.30
52839;BME280;39219;53.678;9.856;2022-08-07T11:31:22;102339.66;;;24.18;41.73
52839;BME280;39219;53.678;9.856;2022-08-07T11:33:53;102343.69;;;24.10;40.64
52839;BME280;39219;53.678;9.856;2022-08-07T11:36:32;102344.41;;;24.30;39.38
52839;BME280;39219;53.678;9.856;2022-08-07T11:39:12;102343.00;;;24.39;40.61
52839;BME280;39219;53.678;9.856;2022-08-07T11:41:50;102342.09;;;24.87;40.37
52839;BME280;39219;53.678;9.856;2022-08-07T11:44:29;102335.84;;;25.01;40.48
52839;BME280;39219;53.678;9.856;2022-08-07T11:47:06;102329.03;;;25.38;39.11
52839;BME280;39219;53.678;9.856;2022-08-07T11:49:59;102334.44;;;25.83;37.71
52839;BME280;39219;53.678;9.856;2022-08-07T11:53:01;102327.88;;;26.29;37.61
52839;BME280;39219;53.678;9.856;2022-08-07T11:55:40;102326.66;;;26.21;35.24
52839;BME280;39219;53.678;9.856;2022-08-07T11:58:18;102326.22;;;25.40;37.57
52839;BME280;39219;53.678;9.856;2022-08-07T12:00:56;102325.22;;;24.49;39.25
52839;BME280;39219;53.678;9.856;2022-08-07T12:03:37;102323.81;;;24.74;39.33
52839;BME280;39219;53.678;9.856;2022-08-07T12:06:19;102326.31;;;24.61;38.80
52839;BME280;39219;53.678;9.856;2022-08-07T12:08:52;102316.09;;;24.02;39.87
52839;BME280;39219;53.678;9.856;2022-08-07T12:11:23;102312.69;;;23.99;41.23
52839;BME280;39219;53.678;9.856;2022-08-07T12:13:55;102312.25;;;24.22;41.40
52839;BME280;39219;53.678;9.856;2022-08-07T12:16:27;102311.19;;;24.73;39.41
52839;BME280;39219;53.678;9.856;2022-08-07T12:19:00;102300.03;;;24.15;41.74
52839;BME280;39219;53.678;9.856;2022-08-07T12:21:36;102297.06;;;24.66;40.75
52839;BME280;39219;53.678;9.856;2022-08-07T12:24:08;102287.75;;;25.32;41.43
52839;BME280;39219;53.678;9.856;2022-08-07T12:26:43;102280.28;;;25.21;39.14
52839;BME280;39219;53.678;9.856;2022-08-07T12:29:11;102295.47;;;25.54;38.98
52839;BME280;39219;53.678;9.856;2022-08-07T12:31:48;102293.13;;;25.77;38.17
52839;BME280;39219;53.678;9.856;2022-08-07T12:34:18;102293.28;;;26.17;37.32
52839;BME280;39219;53.678;9.856;2022-08-07T12:36:45;102297.44;;;26.37;37.85
52839;BME280;39219;53.678;9.856;2022-08-07T12:39:13;102290.13;;;26.38;37.29
52839;BME280;39219;53.678;9.856;2022-08-07T12:41:41;102295.09;;;26.45;38.04
52839;BME280;39219;53.678;9.856;2022-08-07T12:44:10;102296.09;;;26.57;35.97
52839;BME280;39219;53.678;9.856;2022-08-07T12:46:45;102289.56;;;26.33;37.96
52839;BME280;39219;53.678;9.856;2022-08-07T12:49:22;102289.75;;;26.57;37.06
52839;BME280;39219;53.678;9.856;2022-08-07T12:51:55;102292.00;;;26.37;34.93
52839;BME280;39219;53.678;9.856;2022-08-07T12:54:39;102288.13;;;26.27;36.03
52839;BME280;39219;53.678;9.856;2022-08-07T12:57:09;102293.94;;;26.35;36.01
52839;BME280;39219;53.678;9.856;2022-08-07T12:59:36;102290.69;;;25.86;37.28
52839;BME280;39219;53.678;9.856;2022-08-07T13:02:16;102287.56;;;25.93;36.86
52839;BME280;39219;53.678;9.856;2022-08-07T13:05:02;102281.53;;;25.29;40.07
52839;BME280;39219;53.678;9.856;2022-08-07T13:08:05;102278.63;;;26.05;37.83
52839;BME280;39219;53.678;9.856;2022-08-07T13:10:44;102280.22;;;26.37;36.78
52839;BME280;39219;53.678;9.856;2022-08-07T13:13:23;102274.09;;;26.60;35.69